Aérodrome :
LOGIN :

S'inscrire | Disclaimer

   EN    FR    IT 

 










Légende :    VFR   VFR Marginal   IFR   IFR Intensif   IFR Très Intensif
Visi : 
Plafond : 
>= 8 km
>= 3000ft
5 à 8 km
1000 à 3000 ft
1500m à 5 km
500 à 1000 ft
800 à 1500m
200 à 500 ft
< 800m
< 200 ft
Symboles :   Orages  Brouillard  Fortes neiges  Fortes précipitations  Vent > 20 kt
SIGMETs :   Divers  Orages  Givrage  Turbulence  Onde Orograph.  Cendres Volcan.







- Altitude de l'aérodrome : 461 ft
- Code IATA : WIE


ETOU - Wiesbaden Army

DERNIER METAR :
  • 201356Z AUTO 01004KT 9999 CLR 18/07 A3038 RMK AO2 SLP288 T01750070 $

METARs EXPIRÉS :
  • 201256Z AUTO 03003KT 9999 CLR 17/07 A3039 RMK AO2 SLP292 T01720073 $
  • 201156Z AUTO 34005KT 9999 CLR 16/07 A3040 RMK AO2 SLP296 T01640068 10167 20105 50002 $

TAF TAF ETOU
Valide du 20 à 11h jusqu'au 21 à 17h UTC


201056Z 2011/2117 04006KT 9999 SCT040 SKC QNH3034INS
BECMG 2102/2103 05006KT 8000 BR FEW150 QNH3037INS
BECMG 2107/2108 06012KT 9999 NSW FEW120 QNH3036INS TX17/2014Z TN05/2106Z LAST NO AMDS AFT 2011 NEXT 2103
Pas de NOTAMs connus pour ce terrain.



MET'MAP, la Météo Aéronautique d'un coup d'oeil ! - Copyright ORBIFLY Décembre 2007 - Disclaimer

ORBIFLY MET'MAP TEAM :

Programmation & Développement : Alexandra Zaïnal
Conception & Développement : Baudouin d'Aumeries
Co-Programmation & Développement : Marc-Olivier Méhu
Soutien technique & logistique : Manuel Goepfert

Contact : metmap@orbifly.com




SOURCES & CREDITS :

   NOAA